PIMOHWEATHER Station Historical Data
 
Daily Summary for May 26, 2024 Units:  Metric    English   Both
Daily Weekly Monthly Yearly
  Current: High: Low: Average:
Temperature: 25.3 °C 25.6 °C 24.7 °C 25.1 °C
Dew Point: 24.6 °C 24.9 °C 24.2 °C 24.4 °C
Humidity: 96% 97% 95% 96%
Wind Speed: 6.4km/h 25.1km/h 2.8km/h 13.4km/h
Wind Gust: 24.1km/h 52.6km/h - -
WindNNE - - ENE
Pressure: 1002.7 hPa 1005.1 hPa 1002.4 hPa -
Precipitation: 48.3 mm      
 
 
Tabular Data for May 26, 2024
Time Temperature Dew Point Pressure Wind Wind Speed Wind Gust Humidity Rainfall Rate (Hourly) solar
00:04 25.5 °C 24.8 °C 1005.1 hPa North 3.7 km/h 12.2 km/h 96% 10.9 mm 0 W/m2
00:09 25.5 °C 24.8 °C 1005.1 hPa NNE 2.8 km/h 12.2 km/h 96% 10.9 mm 0 W/m2
00:14 25.6 °C 24.9 °C 1004.7 hPa NE 2.9 km/h 7.9 km/h 96% 10.9 mm 0 W/m2
00:19 25.5 °C 24.8 °C 1004.7 hPa North 7.9 km/h 16.3 km/h 96% 8.9 mm 0 W/m2
00:24 25.5 °C 24.8 °C 1004.7 hPa North 8.7 km/h 20.1 km/h 96% 12.7 mm 0 W/m2
00:29 25.5 °C 24.8 °C 1004.7 hPa NNE 8.1 km/h 24.1 km/h 96% 10.9 mm 0 W/m2
00:34 25.5 °C 24.8 °C 1004.7 hPa North 11.1 km/h 28 km/h 96% 8.9 mm 0 W/m2
00:39 25.4 °C 24.7 °C 1004.7 hPa North 12 km/h 32.3 km/h 96% 7.1 mm 0 W/m2
00:44 25.4 °C 24.7 °C 1004.4 hPa NNE 15.1 km/h 32.3 km/h 96% 5.3 mm 0 W/m2
00:49 25.3 °C 24.6 °C 1004.4 hPa North 7 km/h 32.3 km/h 96% 5.3 mm 0 W/m2
00:54 25.3 °C 24.6 °C 1004.4 hPa North 10.6 km/h 28 km/h 96% 7.1 mm 0 W/m2
00:59 25.2 °C 24.5 °C 1004.4 hPa NNE 10.9 km/h 32.3 km/h 96% 8.9 mm 0 W/m2
01:04 25.2 °C 24.5 °C 1004.1 hPa NNE 7.9 km/h 20.1 km/h 96% 7.1 mm 0 W/m2
01:09 25.3 °C 24.6 °C 1004.1 hPa NNE 6.8 km/h 24.1 km/h 96% 7.1 mm 0 W/m2
01:14 25.2 °C 24.5 °C 1004.1 hPa North 11.6 km/h 24.1 km/h 96% 8.9 mm 0 W/m2
01:19 25.2 °C 24.5 °C 1004.1 hPa NNE 8.2 km/h 20.1 km/h 96% 7.1 mm 0 W/m2
01:24 25.2 °C 24.5 °C 1004.1 hPa NNE 5.8 km/h 20.1 km/h 96% 7.1 mm 0 W/m2
01:29 25.2 °C 24.4 °C 1004.1 hPa North 10.7 km/h 36.4 km/h 96% 8.9 mm 0 W/m2
01:34 25.1 °C 24.4 °C 1004.1 hPa NNE 8.3 km/h 20.1 km/h 96% 8.9 mm 0 W/m2
01:39 25.2 °C 24.5 °C 1004.1 hPa NNE 8.6 km/h 24.1 km/h 96% 8.9 mm 0 W/m2
01:44 25.2 °C 24.5 °C 1003.7 hPa North 8.5 km/h 24.1 km/h 96% 10.9 mm 0 W/m2
01:49 25.3 °C 24.6 °C 1003.7 hPa North 9.2 km/h 24.1 km/h 96% 10.9 mm 0 W/m2
01:54 25.3 °C 24.6 °C 1003.7 hPa North 12.3 km/h 20.1 km/h 96% 8.9 mm 0 W/m2
01:59 25.2 °C 24.5 °C 1003.7 hPa NNE 15 km/h 28 km/h 96% 3.6 mm 0 W/m2
02:04 25.2 °C 24.5 °C 1003.7 hPa North 15 km/h 32.3 km/h 96% 1.8 mm 0 W/m2
02:09 25.2 °C 24.4 °C 1003.4 hPa North 11.6 km/h 32.3 km/h 96% 0.0 mm 0 W/m2
02:14 25.2 °C 24.5 °C 1003.4 hPa NNE 10.7 km/h 32.3 km/h 96% 0.0 mm 0 W/m2
02:19 25.2 °C 24.4 °C 1003.7 hPa NNE 12.8 km/h 32.3 km/h 96% 0.0 mm 0 W/m2
02:24 25.1 °C 24.4 °C 1003.7 hPa North 12.2 km/h 36.4 km/h 96% 0.0 mm 0 W/m2
02:29 25.1 °C 24.4 °C 1003.4 hPa NNE 11.5 km/h 36.4 km/h 96% 0.0 mm 0 W/m2
02:34 25.1 °C 24.4 °C 1003.4 hPa NNE 10.2 km/h 28 km/h 96% 0.0 mm 0 W/m2
02:39 25.1 °C 24.4 °C 1003.4 hPa North 14.8 km/h 36.4 km/h 96% 0.0 mm 0 W/m2
02:44 25.1 °C 24.4 °C 1003.4 hPa North 14.1 km/h 32.3 km/h 96% 0.0 mm 0 W/m2
02:49 25.1 °C 24.4 °C 1003.0 hPa NNE 13.6 km/h 32.3 km/h 96% 0.0 mm 0 W/m2
02:54 25.1 °C 24.4 °C 1003.0 hPa NNE 13.4 km/h 36.4 km/h 96% 0.0 mm 0 W/m2
02:59 25.1 °C 24.4 °C 1003.4 hPa NNE 10.6 km/h 28 km/h 96% 0.0 mm 0 W/m2
03:04 25.1 °C 24.3 °C 1003.0 hPa NNE 15.9 km/h 48.3 km/h 96% 0.0 mm 0 W/m2
03:09 25 °C 24.3 °C 1003.0 hPa North 9.9 km/h 24.1 km/h 96% 0.0 mm 0 W/m2
03:14 25 °C 24.3 °C 1003.4 hPa North 7.1 km/h 20.1 km/h 96% 0.0 mm 0 W/m2
03:19 24.9 °C 24.2 °C 1003.0 hPa NNE 9.6 km/h 28 km/h 96% 0.0 mm 0 W/m2
03:24 24.9 °C 24.2 °C 1003.0 hPa North 10.7 km/h 28 km/h 96% 0.0 mm 0 W/m2
03:29 24.9 °C 24.2 °C 1003.0 hPa North 9.3 km/h 20.1 km/h 96% 0.0 mm 0 W/m2
03:34 24.9 °C 24.2 °C 1003.0 hPa North 9.5 km/h 24.1 km/h 96% 0.0 mm 0 W/m2
03:39 24.9 °C 24.2 °C 1003.4 hPa NNE 12.9 km/h 24.1 km/h 96% 0.0 mm 0 W/m2
03:44 24.9 °C 24.2 °C 1003.0 hPa NNE 12.2 km/h 24.1 km/h 96% 0.0 mm 0 W/m2
03:49 24.9 °C 24.2 °C 1003.0 hPa North 12 km/h 36.4 km/h 95.9% 0.0 mm 0 W/m2
03:54 24.9 °C 24.2 °C 1003.0 hPa NNE 10.9 km/h 36.4 km/h 95.8% 1.8 mm 0 W/m2
03:59 24.9 °C 24.2 °C 1003.4 hPa NNE 13.6 km/h 32.3 km/h 95.8% 3.6 mm 0 W/m2
04:04 24.9 °C 24.2 °C 1003.0 hPa NNE 9.5 km/h 28 km/h 96% 5.3 mm 0 W/m2
04:09 24.9 °C 24.2 °C 1003.0 hPa North 10.9 km/h 24.1 km/h 96% 3.6 mm 0 W/m2
04:14 24.9 °C 24.2 °C 1003.4 hPa North 9.7 km/h 28 km/h 96% 1.8 mm 0 W/m2
04:19 24.9 °C 24.2 °C 1003.0 hPa North 14.7 km/h 36.4 km/h 96% 0.0 mm 0 W/m2
04:24 24.9 °C 24.2 °C 1003.0 hPa NNE 10.6 km/h 28 km/h 96% 0.0 mm 0 W/m2
04:29 25 °C 24.3 °C 1003.0 hPa North 12.1 km/h 36.4 km/h 96% 0.0 mm 0 W/m2
04:34 25 °C 24.3 °C 1003.0 hPa NNE 13.9 km/h 36.4 km/h 96% 0.0 mm 0 W/m2
04:39 25 °C 24.3 °C 1003.0 hPa North 14 km/h 36.4 km/h 96% 0.0 mm 0 W/m2
04:44 25 °C 24.3 °C 1003.0 hPa NE 10.5 km/h 36.4 km/h 96% 0.0 mm 0 W/m2
04:49 25.1 °C 24.3 °C 1003.0 hPa NNE 15.8 km/h 36.4 km/h 96% 0.0 mm 0 W/m2
04:54 25.1 °C 24.4 °C 1002.7 hPa NNE 14.6 km/h 44.3 km/h 96% 0.0 mm 0 W/m2
04:59 25.1 °C 24.4 °C 1002.7 hPa NNE 15.3 km/h 36.4 km/h 96% 0.0 mm 0 W/m2
05:04 25.1 °C 24.4 °C 1002.7 hPa NNE 14.4 km/h 40.4 km/h 96% 0.0 mm 0 W/m2
05:09 25.1 °C 24.4 °C 1002.4 hPa NNE 15.5 km/h 36.4 km/h 96% 0.0 mm 0 W/m2
05:14 25.1 °C 24.4 °C 1002.7 hPa NNE 16.4 km/h 36.4 km/h 96% 0.0 mm 0 W/m2
05:19 25.1 °C 24.4 °C 1002.7 hPa North 11.4 km/h 36.4 km/h 96% 1.8 mm 0 W/m2
05:24 25.1 °C 24.4 °C 1002.7 hPa NNE 11.1 km/h 28 km/h 96% 1.8 mm 0 W/m2
05:29 25.1 °C 24.4 °C 1003.0 hPa North 11.1 km/h 20.1 km/h 96% 1.8 mm 0 W/m2
05:34 25.1 °C 24.4 °C 1003.0 hPa North 14.6 km/h 40.4 km/h 96% 0.0 mm 0 W/m2
05:39 25.1 °C 24.4 °C 1003.0 hPa North 12.3 km/h 40.4 km/h 96% 0.0 mm 0 W/m2
05:44 25.1 °C 24.4 °C 1003.0 hPa North 12.6 km/h 32.3 km/h 96% 3.6 mm 0 W/m2
05:49 25.1 °C 24.4 °C 1003.0 hPa NNE 14.9 km/h 40.4 km/h 96% 8.9 mm 0 W/m2
05:54 25.1 °C 24.4 °C 1003.0 hPa NNE 10.1 km/h 28 km/h 96% 10.9 mm 2 W/m2
05:59 25.1 °C 24.4 °C 1003.0 hPa North 17.8 km/h 36.4 km/h 96% 8.9 mm 2 W/m2
06:04 25.1 °C 24.4 °C 1003.0 hPa NNE 11.2 km/h 32.3 km/h 96% 5.3 mm 2 W/m2
06:09 25.1 °C 24.3 °C 1003.0 hPa North 16.2 km/h 36.4 km/h 96% 5.3 mm 3 W/m2
06:14 25 °C 24.3 °C 1003.4 hPa North 13.4 km/h 32.3 km/h 96.3% 5.3 mm 3 W/m2
06:19 24.9 °C 24.3 °C 1003.4 hPa North 13.7 km/h 36.4 km/h 96.3% 5.3 mm 3 W/m2
06:24 24.9 °C 24.3 °C 1003.7 hPa NNE 11.5 km/h 32.3 km/h 96.8% 1.8 mm 3 W/m2
06:29 24.9 °C 24.3 °C 1003.7 hPa North 12.5 km/h 36.4 km/h 96.6% 3.6 mm 3 W/m2
06:34 24.9 °C 24.4 °C 1003.7 hPa North 13.4 km/h 28 km/h 96.9% 14.5 mm 4 W/m2
06:39 24.9 °C 24.4 °C 1003.4 hPa NNE 13.7 km/h 32.3 km/h 97% 28.7 mm 5 W/m2
06:44 24.9 °C 24.4 °C 1003.7 hPa NNE 9 km/h 32.3 km/h 97% 30.5 mm 6 W/m2
06:49 24.8 °C 24.3 °C 1003.7 hPa NNE 12.9 km/h 36.4 km/h 97% 16.3 mm 7 W/m2
06:54 24.9 °C 24.4 °C 1003.7 hPa North 7 km/h 24.1 km/h 97% 5.3 mm 8 W/m2
06:59 24.9 °C 24.4 °C 1003.7 hPa North 12.6 km/h 28 km/h 97% 7.1 mm 9 W/m2
07:04 24.9 °C 24.4 °C 1003.7 hPa North 12.5 km/h 32.3 km/h 97% 7.1 mm 10 W/m2
07:09 24.8 °C 24.3 °C 1003.7 hPa NNE 18.7 km/h 40.4 km/h 97% 7.1 mm 11 W/m2
07:14 24.8 °C 24.3 °C 1003.7 hPa North 19.2 km/h 44.3 km/h 97% 8.9 mm 14 W/m2
07:19 24.8 °C 24.3 °C 1003.7 hPa North 23.4 km/h 44.3 km/h 97% 8.9 mm 15 W/m2
07:24 24.7 °C 24.2 °C 1003.7 hPa NNE 20.7 km/h 44.3 km/h 97% 7.1 mm 16 W/m2
07:29 24.7 °C 24.2 °C 1003.7 hPa North 13 km/h 32.3 km/h 97% 7.1 mm 19 W/m2
07:34 24.7 °C 24.2 °C 1003.4 hPa NE 18.7 km/h 44.3 km/h 97% 7.1 mm 22 W/m2
07:39 24.7 °C 24.2 °C 1003.4 hPa North 12.2 km/h 36.4 km/h 97% 5.3 mm 25 W/m2
07:44 24.7 °C 24.2 °C 1003.4 hPa North 16.8 km/h 36.4 km/h 97% 5.3 mm 29 W/m2
07:49 24.8 °C 24.3 °C 1003.4 hPa NNE 9.5 km/h 28 km/h 97% 5.3 mm 31 W/m2
07:54 24.8 °C 24.3 °C 1003.7 hPa North 12.5 km/h 32.3 km/h 97% 5.3 mm 32 W/m2
07:59 24.8 °C 24.3 °C 1003.7 hPa North 11.5 km/h 32.3 km/h 97% 3.6 mm 33 W/m2
08:04 24.8 °C 24.3 °C 1003.7 hPa North 6.9 km/h 16.3 km/h 97% 3.6 mm 32 W/m2
08:09 24.8 °C 24.3 °C 1003.7 hPa NNE 8.2 km/h 24.1 km/h 97% 3.6 mm 33 W/m2
08:14 24.8 °C 24.3 °C 1003.7 hPa North 8.4 km/h 24.1 km/h 97% 3.6 mm 32 W/m2
08:19 24.8 °C 24.3 °C 1003.7 hPa NNE 6.2 km/h 24.1 km/h 97% 3.6 mm 34 W/m2
08:24 24.8 °C 24.3 °C 1003.7 hPa North 12.5 km/h 28 km/h 97% 5.3 mm 34 W/m2
08:29 24.8 °C 24.3 °C 1003.7 hPa North 12.9 km/h 32.3 km/h 97% 5.3 mm 38 W/m2
08:34 24.8 °C 24.3 °C 1003.4 hPa NNE 16.2 km/h 32.3 km/h 97% 5.3 mm 42 W/m2
08:39 24.8 °C 24.3 °C 1003.4 hPa NNE 14.5 km/h 36.4 km/h 97% 5.3 mm 45 W/m2
08:44 24.8 °C 24.3 °C 1003.7 hPa North 14.4 km/h 36.4 km/h 97% 3.6 mm 46 W/m2
08:49 24.8 °C 24.3 °C 1003.7 hPa NNE 13.7 km/h 40.4 km/h 97% 3.6 mm 45 W/m2
08:54 24.9 °C 24.4 °C 1003.4 hPa North 9.8 km/h 24.1 km/h 97% 1.8 mm 47 W/m2
08:59 24.9 °C 24.4 °C 1003.7 hPa North 13.6 km/h 32.3 km/h 97% 3.6 mm 49 W/m2
09:04 24.9 °C 24.4 °C 1003.7 hPa North 17.2 km/h 40.4 km/h 97% 1.8 mm 48 W/m2
09:09 24.9 °C 24.4 °C 1003.7 hPa North 17.3 km/h 36.4 km/h 97% 1.8 mm 53 W/m2
09:14 24.8 °C 24.3 °C 1003.7 hPa North 15.8 km/h 40.4 km/h 97% 1.8 mm 55 W/m2
09:19 24.9 °C 24.4 °C 1003.7 hPa North 13.8 km/h 40.4 km/h 97% 1.8 mm 54 W/m2
09:24 24.9 °C 24.4 °C 1003.7 hPa North 11.6 km/h 40.4 km/h 97% 3.6 mm 52 W/m2
09:29 24.9 °C 24.4 °C 1003.7 hPa NNE 16.7 km/h 36.4 km/h 97% 1.8 mm 58 W/m2
09:34 24.9 °C 24.4 °C 1003.7 hPa North 20.5 km/h 40.4 km/h 97% 3.6 mm 68 W/m2
09:39 24.9 °C 24.4 °C 1003.7 hPa North 18.9 km/h 52.6 km/h 97% 1.8 mm 75 W/m2
09:44 25 °C 24.5 °C 1003.7 hPa North 15 km/h 52.6 km/h 97% 1.8 mm 78 W/m2
09:49 25 °C 24.4 °C 1004.1 hPa North 18.3 km/h 40.4 km/h 96.6% 1.8 mm 81 W/m2
09:54 25 °C 24.3 °C 1004.1 hPa North 22.2 km/h 44.3 km/h 96% 1.8 mm 80 W/m2
09:59 25 °C 24.3 °C 1003.7 hPa North 14.7 km/h 32.3 km/h 96% 0.0 mm 88 W/m2
10:04 25.1 °C 24.4 °C 1003.7 hPa North 13.7 km/h 36.4 km/h 96% 1.8 mm 89 W/m2
10:09 25.1 °C 24.4 °C 1003.7 hPa NNE 14.2 km/h 40.4 km/h 96% 1.8 mm 86 W/m2
10:14 25.2 °C 24.4 °C 1004.1 hPa NNE 15.2 km/h 40.4 km/h 96% 1.8 mm 98 W/m2
10:19 25.2 °C 24.5 °C 1003.7 hPa North 18.8 km/h 40.4 km/h 96% 0.0 mm 100 W/m2
10:24 25.2 °C 24.4 °C 1003.7 hPa North 21.1 km/h 44.3 km/h 96% 0.0 mm 97 W/m2
10:29 25.2 °C 24.5 °C 1004.1 hPa NNE 16.1 km/h 36.4 km/h 96% 1.8 mm 96 W/m2
10:34 25.2 °C 24.5 °C 1003.7 hPa NNE 18.7 km/h 52.6 km/h 96% 1.8 mm 96 W/m2
10:39 25.2 °C 24.5 °C 1003.7 hPa North 20.8 km/h 52.6 km/h 96% 3.6 mm 87 W/m2
10:44 25.2 °C 24.5 °C 1003.7 hPa North 14.8 km/h 40.4 km/h 96% 3.6 mm 96 W/m2
10:49 25.2 °C 24.5 °C 1003.7 hPa North 21.7 km/h 48.3 km/h 96% 3.6 mm 100 W/m2
10:54 25.2 °C 24.5 °C 1003.7 hPa NNE 13.7 km/h 36.4 km/h 96% 3.6 mm 101 W/m2
10:59 25.2 °C 24.5 °C 1003.7 hPa North 19.7 km/h 40.4 km/h 96% 3.6 mm 99 W/m2
11:04 25.2 °C 24.5 °C 1003.7 hPa NNE 13.7 km/h 40.4 km/h 96% 3.6 mm 108 W/m2
11:09 25.3 °C 24.6 °C 1004.1 hPa North 19.8 km/h 40.4 km/h 96% 1.8 mm 109 W/m2
11:14 25.2 °C 24.5 °C 1003.7 hPa North 23.9 km/h 52.6 km/h 96% 1.8 mm 118 W/m2
11:19 25.3 °C 24.6 °C 1003.7 hPa North 24 km/h 52.6 km/h 96% 1.8 mm 121 W/m2
11:24 25.3 °C 24.6 °C 1003.7 hPa North 18.3 km/h 48.3 km/h 96% 1.8 mm 120 W/m2
11:29 25.3 °C 24.6 °C 1003.7 hPa North 16 km/h 52.6 km/h 96% 3.6 mm 118 W/m2
11:34 25.3 °C 24.6 °C 1003.4 hPa North 19.8 km/h 52.6 km/h 96% 1.8 mm 108 W/m2
11:39 25.2 °C 24.5 °C 1003.4 hPa North 25.1 km/h 52.6 km/h 96% 3.6 mm 107 W/m2
11:44 25.2 °C 24.5 °C 1003.4 hPa NE 22.5 km/h 52.6 km/h 96% 3.6 mm 124 W/m2
11:49 25.3 °C 24.6 °C 1003.4 hPa North 11.8 km/h 36.4 km/h 96% 3.6 mm 135 W/m2
11:54 25.3 °C 24.6 °C 1003.4 hPa NNE 14.5 km/h 36.4 km/h 96% 1.8 mm 139 W/m2
11:59 25.3 °C 24.6 °C 1003.4 hPa North 15.6 km/h 48.3 km/h 96% 1.8 mm 139 W/m2
12:04 25.3 °C 24.6 °C 1003.4 hPa North 18.2 km/h 48.3 km/h 96% 1.8 mm 142 W/m2
12:09 25.4 °C 24.7 °C 1003.4 hPa NNW 13.9 km/h 40.4 km/h 96% 1.8 mm 144 W/m2
12:14 25.4 °C 24.7 °C 1003.7 hPa NNE 16.2 km/h 40.4 km/h 96% 1.8 mm 164 W/m2
12:19 25.4 °C 24.7 °C 1003.4 hPa NNW 21.8 km/h 44.3 km/h 96% 1.8 mm 165 W/m2
12:24 25.3 °C 24.7 °C 1003.4 hPa North 18 km/h 40.4 km/h 95.9% 1.8 mm 165 W/m2
12:29 25.3 °C 24.5 °C 1003.4 hPa NNE 16.1 km/h 40.4 km/h 95.1% 0.0 mm 123 W/m2
12:34 25.3 °C 24.4 °C 1003.4 hPa NNE 15.7 km/h 48.3 km/h 95% 1.8 mm 109 W/m2
12:39 25.3 °C 24.4 °C 1003.4 hPa North 16.1 km/h 40.4 km/h 95% 3.6 mm 120 W/m2
12:44 25.3 °C 24.4 °C 1003.0 hPa North 11.4 km/h 36.4 km/h 95% 3.6 mm 125 W/m2
12:49 25.4 °C 24.5 °C 1003.0 hPa NNE 15.6 km/h 40.4 km/h 95% 1.8 mm 125 W/m2
12:54 25.4 °C 24.6 °C 1003.0 hPa North 16.4 km/h 40.4 km/h 95.5% 1.8 mm 97 W/m2
12:59 25.4 °C 24.7 °C 1003.4 hPa NNE 16 km/h 36.4 km/h 96% 3.6 mm 81 W/m2
13:04 25.3 °C 24.6 °C 1003.4 hPa North 14.5 km/h 40.4 km/h 95.9% 5.3 mm 92 W/m2
13:09 25.3 °C 24.6 °C 1003.4 hPa North 17.7 km/h 44.3 km/h 96% 5.3 mm 96 W/m2
13:14 25.3 °C 24.6 °C 1003.0 hPa North 10.8 km/h 36.4 km/h 96% 5.3 mm 101 W/m2
13:19 25.3 °C 24.6 °C 1003.0 hPa NNE 17.5 km/h 40.4 km/h 96% 5.3 mm 104 W/m2
13:24 25.3 °C 24.6 °C 1003.0 hPa North 15.3 km/h 36.4 km/h 96% 5.3 mm 111 W/m2
13:29 25.3 °C 24.6 °C 1003.0 hPa NNE 11.3 km/h 32.3 km/h 96% 3.6 mm 110 W/m2
13:34 25.3 °C 24.7 °C 1003.0 hPa North 12.5 km/h 32.3 km/h 96% 1.8 mm 108 W/m2
13:39 25.3 °C 24.6 °C 1002.7 hPa North 10 km/h 28 km/h 96% 1.8 mm 99 W/m2
13:44 25.3 °C 24.7 °C 1002.7 hPa NNE 7.9 km/h 24.1 km/h 96% 3.6 mm 91 W/m2
13:49 25.3 °C 24.6 °C 1003.0 hPa North 11.9 km/h 28 km/h 96% 3.6 mm 81 W/m2
13:54 25.3 °C 24.6 °C 1002.7 hPa NNE 10.1 km/h 28 km/h 96% 3.6 mm 64 W/m2
13:59 25.3 °C 24.6 °C 1002.7 hPa NNE 7 km/h 20.1 km/h 96% 5.3 mm 55 W/m2
14:04 25.3 °C 24.6 °C 1002.7 hPa NNE 6.4 km/h 24.1 km/h 96% 7.1 mm 55 W/m2
PIMOHWEATHER Philippines
Compliments of Weather Underground - 2 mb